IGO1872 FMEE-VOMM
Flight info
| Callsign | IGO1872 |
|---|---|
| Flight time | N/A |
| Altitude | 35000 |
| Route | LOMRU DCT EPTEK DCT 15S060E 03S069E DCT RUSAP DCT MLE DCT MUGBA DCT TVM DCT GUTEG DCT MDI DCT TTR |
| Aircraft | A320/M-SDE3FGHIRWY/LB1 |
Departure
| Time | 2026-05-04 14:08 |
|---|---|
| Airport | Roland Garros Airport (FMEE) |
Arrival
| Time | N/A |
|---|---|
| Airport | Chennai International Airport (VOMM) |
| Time | Latitude | Longitude | Altitude | Speed | Heading |
|---|---|---|---|---|---|
| 2026-05-04 13:28 | -20.89086 | 55.51227 | 75 ft | 0 kts | 207° |
| 2026-05-04 13:44 | -20.89086 | 55.51228 | 70 ft | 0 kts | 207° |
| 2026-05-04 13:56 | -20.89085 | 55.51228 | 74 ft | 0 kts | 207° |
| 2026-05-04 13:58 | -20.89050 | 55.51249 | 66 ft | 4 kts | 214° |
| 2026-05-04 13:58 | -20.89016 | 55.51289 | 65 ft | 4 kts | 273° |
| 2026-05-04 13:58 | -20.89019 | 55.51301 | 75 ft | 1 kts | 296° |
| 2026-05-04 13:59 | -20.89019 | 55.51302 | 75 ft | 1 kts | 296° |
| 2026-05-04 14:02 | -20.89015 | 55.51294 | 68 ft | 2 kts | 296° |
| 2026-05-04 14:02 | -20.89007 | 55.51277 | 71 ft | 3 kts | 296° |
| 2026-05-04 14:03 | -20.88995 | 55.51251 | 75 ft | 5 kts | 296° |
| 2026-05-04 14:03 | -20.88979 | 55.51217 | 67 ft | 6 kts | 297° |
| 2026-05-04 14:03 | -20.88946 | 55.51189 | 71 ft | 7 kts | 337° |
| 2026-05-04 14:03 | -20.88896 | 55.51172 | 70 ft | 8 kts | 341° |
| 2026-05-04 14:04 | -20.88736 | 55.51090 | 55 ft | 16 kts | 303° |
| 2026-05-04 14:04 | -20.88701 | 55.50971 | 58 ft | 18 kts | 282° |
| 2026-05-04 14:04 | -20.88670 | 55.50825 | 56 ft | 22 kts | 283° |
| 2026-05-04 14:05 | -20.88603 | 55.50549 | 53 ft | 13 kts | 307° |
| 2026-05-04 14:05 | -20.88595 | 55.50482 | 53 ft | 9 kts | 189° |
| 2026-05-04 14:05 | -20.88613 | 55.50535 | 53 ft | 8 kts | 98° |
| 2026-05-04 14:06 | -20.88626 | 55.50598 | 52 ft | 9 kts | 103° |
| 2026-05-04 14:06 | -20.88635 | 55.50639 | 55 ft | 0 kts | 103° |
| 2026-05-04 14:07 | -20.88637 | 55.50651 | 52 ft | 5 kts | 103° |
| 2026-05-04 14:07 | -20.88674 | 55.50815 | 56 ft | 54 kts | 103° |
| 2026-05-04 14:07 | -20.88807 | 55.51481 | 60 ft | 126 kts | 102° |
| 2026-05-04 14:07 | -20.89044 | 55.52597 | 53 ft | 179 kts | 104° |
| 2026-05-04 14:08 | -20.89409 | 55.53918 | 708 ft | 182 kts | 104° |
| 2026-05-04 14:08 | -20.89286 | 55.55226 | 1253 ft | 184 kts | 63° |
| 2026-05-04 14:08 | -20.88500 | 55.56363 | 1473 ft | 205 kts | 50° |
| 2026-05-04 14:08 | -20.87446 | 55.57551 | 1707 ft | 229 kts | 47° |
| 2026-05-04 14:09 | -20.85066 | 55.60218 | 2627 ft | 262 kts | 49° |
| 2026-05-04 14:09 | -20.83827 | 55.61678 | 3364 ft | 268 kts | 50° |
| 2026-05-04 14:10 | -20.81344 | 55.64728 | 4937 ft | 275 kts | 52° |
| 2026-05-04 14:10 | -20.80100 | 55.66294 | 5729 ft | 277 kts | 52° |
| 2026-05-04 14:10 | -20.78851 | 55.67877 | 6504 ft | 280 kts | 52° |
| 2026-05-04 14:10 | -20.77596 | 55.69469 | 7184 ft | 283 kts | 52° |
| 2026-05-04 14:11 | -20.76319 | 55.71089 | 7860 ft | 287 kts | 52° |
| 2026-05-04 14:11 | -20.73725 | 55.74414 | 9127 ft | 295 kts | 52° |
| 2026-05-04 14:11 | -20.72398 | 55.76110 | 9729 ft | 300 kts | 52° |
| 2026-05-04 14:12 | -20.71042 | 55.77835 | 10180 ft | 311 kts | 52° |
| 2026-05-04 14:12 | -20.69603 | 55.79665 | 10304 ft | 331 kts | 52° |
| 2026-05-04 14:12 | -20.66524 | 55.83588 | 10900 ft | 356 kts | 52° |
| 2026-05-04 14:13 | -20.64923 | 55.85625 | 11425 ft | 360 kts | 51° |
| 2026-05-04 14:13 | -20.63306 | 55.87679 | 11930 ft | 364 kts | 51° |
| 2026-05-04 14:13 | -20.61661 | 55.89751 | 12432 ft | 368 kts | 50° |
| 2026-05-04 14:13 | -20.59943 | 55.91792 | 12929 ft | 371 kts | 48° |
| 2026-05-04 14:14 | -20.58166 | 55.93811 | 13413 ft | 375 kts | 47° |
| 2026-05-04 14:14 | -20.54520 | 55.97857 | 14336 ft | 382 kts | 47° |
| 2026-05-04 14:14 | -20.52674 | 55.99912 | 14795 ft | 385 kts | 47° |
| 2026-05-04 14:15 | -20.48967 | 56.04094 | 15696 ft | 391 kts | 47° |
| 2026-05-04 14:15 | -20.45214 | 56.08365 | 16556 ft | 397 kts | 47° |
| 2026-05-04 14:16 | -20.41239 | 56.12513 | 17368 ft | 404 kts | 36° |
| 2026-05-04 14:16 | -20.38931 | 56.14240 | 17757 ft | 407 kts | 34° |
| 2026-05-04 14:17 | -20.34250 | 56.17712 | 18541 ft | 413 kts | 34° |
| 2026-05-04 14:17 | -20.31916 | 56.19446 | 18941 ft | 415 kts | 34° |
| 2026-05-04 14:17 | -20.27154 | 56.22990 | 19775 ft | 419 kts | 34° |
| 2026-05-04 14:18 | -20.24755 | 56.24772 | 20165 ft | 421 kts | 34° |
| 2026-05-04 14:18 | -20.19925 | 56.28361 | 20940 ft | 426 kts | 35° |
| 2026-05-04 14:19 | -20.15048 | 56.31983 | 21686 ft | 429 kts | 35° |
| 2026-05-04 14:19 | -20.12588 | 56.33806 | 22052 ft | 431 kts | 35° |
| 2026-05-04 14:19 | -20.10122 | 56.35634 | 22396 ft | 433 kts | 35° |
| 2026-05-04 14:19 | -20.07640 | 56.37470 | 22728 ft | 435 kts | 34° |
| 2026-05-04 14:20 | -20.05144 | 56.39312 | 23057 ft | 438 kts | 34° |
| 2026-05-04 14:20 | -20.02640 | 56.41160 | 23402 ft | 439 kts | 35° |
| 2026-05-04 14:20 | -20.00127 | 56.43019 | 23733 ft | 441 kts | 35° |
| 2026-05-04 14:21 | -19.95074 | 56.46763 | 24344 ft | 445 kts | 35° |
| 2026-05-04 14:21 | -19.92527 | 56.48650 | 24634 ft | 447 kts | 35° |
| 2026-05-04 14:21 | -19.89962 | 56.50546 | 24937 ft | 449 kts | 34° |
| 2026-05-04 14:21 | -19.87424 | 56.52414 | 25234 ft | 451 kts | 34° |
| 2026-05-04 14:22 | -19.84832 | 56.54321 | 25549 ft | 453 kts | 34° |
| 2026-05-04 14:22 | -19.82244 | 56.56227 | 25852 ft | 454 kts | 34° |
| 2026-05-04 14:22 | -19.79642 | 56.58145 | 26126 ft | 456 kts | 34° |
| 2026-05-04 14:22 | -19.77033 | 56.60068 | 26392 ft | 458 kts | 34° |
| 2026-05-04 14:23 | -19.72675 | 56.63286 | 26866 ft | 461 kts | 34° |
| 2026-05-04 14:23 | -19.70034 | 56.65234 | 27121 ft | 462 kts | 34° |
| 2026-05-04 14:23 | -19.67390 | 56.67183 | 27391 ft | 464 kts | 34° |
| 2026-05-04 14:24 | -19.64730 | 56.69141 | 27660 ft | 465 kts | 34° |
| 2026-05-04 14:24 | -19.61164 | 56.71759 | 28027 ft | 467 kts | 33° |
| 2026-05-04 14:24 | -19.59390 | 56.73060 | 28198 ft | 469 kts | 33° |
| 2026-05-04 14:24 | -19.56695 | 56.75035 | 28462 ft | 470 kts | 33° |
| 2026-05-04 14:25 | -19.54000 | 56.77013 | 28757 ft | 471 kts | 33° |
| 2026-05-04 14:25 | -19.48625 | 56.80960 | 29545 ft | 469 kts | 33° |
| 2026-05-04 14:25 | -19.45947 | 56.82927 | 29925 ft | 468 kts | 33° |
| 2026-05-04 14:26 | -19.43272 | 56.84888 | 30294 ft | 467 kts | 33° |
| 2026-05-04 14:26 | -19.40597 | 56.86846 | 30642 ft | 467 kts | 33° |
| 2026-05-04 14:26 | -19.37924 | 56.88803 | 30982 ft | 467 kts | 33° |
| 2026-05-04 14:26 | -19.35257 | 56.90761 | 31297 ft | 467 kts | 33° |
| 2026-05-04 14:27 | -19.32585 | 56.92721 | 31614 ft | 467 kts | 32° |
| 2026-05-04 14:27 | -19.29910 | 56.94680 | 31921 ft | 468 kts | 32° |
| 2026-05-04 14:27 | -19.27233 | 56.96641 | 32228 ft | 468 kts | 32° |
| 2026-05-04 14:27 | -19.24547 | 56.98604 | 32558 ft | 468 kts | 32° |
| 2026-05-04 14:28 | -19.21867 | 57.00559 | 32870 ft | 468 kts | 32° |
| 2026-05-04 14:28 | -19.19220 | 57.02485 | 33180 ft | 468 kts | 31° |
| 2026-05-04 14:28 | -19.16540 | 57.04437 | 33468 ft | 468 kts | 32° |
| 2026-05-04 14:28 | -19.13857 | 57.06394 | 33755 ft | 468 kts | 32° |
| 2026-05-04 14:29 | -19.08496 | 57.10310 | 34322 ft | 468 kts | 31° |
| 2026-05-04 14:29 | -19.03141 | 57.14219 | 34876 ft | 467 kts | 31° |
| 2026-05-04 14:30 | -19.00469 | 57.16167 | 35025 ft | 468 kts | 31° |
| 2026-05-04 14:30 | -18.97770 | 57.18127 | 35058 ft | 473 kts | 31° |
| 2026-05-04 14:31 | -18.89580 | 57.24082 | 35053 ft | 477 kts | 31° |
| 2026-05-04 14:32 | -18.78645 | 57.32039 | 35054 ft | 477 kts | 31° |
| 2026-05-04 14:32 | -18.73209 | 57.35985 | 35058 ft | 477 kts | 31° |
| 2026-05-04 14:33 | -18.67736 | 57.39957 | 35060 ft | 477 kts | 31° |
| 2026-05-04 14:33 | -18.62263 | 57.43924 | 35060 ft | 477 kts | 31° |
| 2026-05-04 14:34 | -18.56795 | 57.47876 | 35069 ft | 476 kts | 31° |
| 2026-05-04 14:34 | -18.51333 | 57.51828 | 35066 ft | 476 kts | 31° |
| 2026-05-04 14:35 | -18.45871 | 57.55778 | 35063 ft | 476 kts | 31° |
| 2026-05-04 14:35 | -18.40410 | 57.59722 | 35071 ft | 475 kts | 31° |
| 2026-05-04 14:36 | -18.34951 | 57.63657 | 35071 ft | 476 kts | 31° |
| 2026-05-04 14:36 | -18.29490 | 57.67590 | 35068 ft | 475 kts | 31° |
| 2026-05-04 14:37 | -18.24073 | 57.71496 | 35065 ft | 475 kts | 31° |
| 2026-05-04 14:37 | -18.18623 | 57.75420 | 35065 ft | 475 kts | 31° |
| 2026-05-04 14:38 | -18.13170 | 57.79344 | 35059 ft | 475 kts | 31° |
| 2026-05-04 14:38 | -18.07723 | 57.83267 | 35060 ft | 474 kts | 31° |
| 2026-05-04 14:39 | -18.02275 | 57.87179 | 35061 ft | 474 kts | 31° |
| 2026-05-04 14:39 | -17.96824 | 57.91088 | 35060 ft | 474 kts | 31° |
| 2026-05-04 14:40 | -17.88651 | 57.96941 | 35058 ft | 474 kts | 31° |
| 2026-05-04 14:40 | -17.83212 | 58.00851 | 35055 ft | 474 kts | 31° |
| 2026-05-04 14:41 | -17.77767 | 58.04753 | 35052 ft | 474 kts | 31° |
| 2026-05-04 14:42 | -17.66875 | 58.12543 | 35054 ft | 474 kts | 31° |
| 2026-05-04 14:42 | -17.61425 | 58.16428 | 35056 ft | 474 kts | 30° |
| 2026-05-04 14:43 | -17.56015 | 58.20288 | 35060 ft | 473 kts | 31° |
| 2026-05-04 14:43 | -17.50570 | 58.24170 | 35057 ft | 473 kts | 31° |
| 2026-05-04 14:44 | -17.45125 | 58.28049 | 35059 ft | 473 kts | 31° |
| 2026-05-04 14:44 | -17.39684 | 58.31927 | 35061 ft | 472 kts | 31° |
| 2026-05-04 14:45 | -17.34254 | 58.35797 | 35068 ft | 472 kts | 30° |
| 2026-05-04 14:45 | -17.28811 | 58.39667 | 35057 ft | 472 kts | 30° |
| 2026-05-04 14:46 | -17.23424 | 58.43499 | 35058 ft | 471 kts | 30° |
| 2026-05-04 14:46 | -17.18006 | 58.47339 | 35052 ft | 470 kts | 30° |
| 2026-05-04 14:47 | -17.12597 | 58.51181 | 35055 ft | 470 kts | 30° |
| 2026-05-04 14:47 | -17.07187 | 58.55017 | 35050 ft | 470 kts | 30° |
| 2026-05-04 14:48 | -17.01776 | 58.58850 | 35050 ft | 470 kts | 30° |
| 2026-05-04 14:48 | -16.96370 | 58.62677 | 35049 ft | 469 kts | 30° |
| 2026-05-04 14:49 | -16.90969 | 58.66507 | 35049 ft | 469 kts | 30° |
| 2026-05-04 14:49 | -16.85565 | 58.70324 | 35053 ft | 469 kts | 30° |
| 2026-05-04 14:50 | -16.80157 | 58.74145 | 35055 ft | 469 kts | 30° |
| 2026-05-04 14:50 | -16.74754 | 58.77957 | 35055 ft | 468 kts | 30° |
| 2026-05-04 14:51 | -16.69357 | 58.81763 | 35056 ft | 468 kts | 30° |
| 2026-05-04 14:51 | -16.63962 | 58.85567 | 35056 ft | 468 kts | 30° |
| 2026-05-04 14:52 | -16.58565 | 58.89371 | 35054 ft | 468 kts | 30° |
| 2026-05-04 14:52 | -16.53166 | 58.93181 | 35055 ft | 468 kts | 30° |
| 2026-05-04 14:53 | -16.47774 | 58.96985 | 35053 ft | 468 kts | 30° |
| 2026-05-04 14:53 | -16.42384 | 59.00776 | 35052 ft | 467 kts | 30° |
| 2026-05-04 14:54 | -16.36997 | 59.04564 | 35051 ft | 467 kts | 30° |
| 2026-05-04 14:54 | -16.31641 | 59.08322 | 35052 ft | 467 kts | 30° |
| 2026-05-04 14:55 | -16.26250 | 59.12093 | 35052 ft | 467 kts | 30° |
| 2026-05-04 14:55 | -16.20855 | 59.15866 | 35051 ft | 467 kts | 30° |
| 2026-05-04 14:56 | -16.15470 | 59.19643 | 35052 ft | 467 kts | 30° |
| 2026-05-04 14:56 | -16.10091 | 59.23420 | 35046 ft | 466 kts | 30° |
| 2026-05-04 14:57 | -16.04712 | 59.27182 | 35045 ft | 466 kts | 30° |
| 2026-05-04 14:57 | -15.99337 | 59.30946 | 35042 ft | 465 kts | 30° |
| 2026-05-04 14:58 | -15.93972 | 59.34697 | 35047 ft | 465 kts | 30° |
| 2026-05-04 14:58 | -15.88615 | 59.38441 | 35049 ft | 464 kts | 30° |
| 2026-05-04 14:59 | -15.83257 | 59.42178 | 35048 ft | 463 kts | 30° |
| 2026-05-04 15:00 | -15.75233 | 59.47765 | 35044 ft | 463 kts | 30° |
| 2026-05-04 15:00 | -15.69892 | 59.51496 | 35042 ft | 463 kts | 30° |
| 2026-05-04 15:01 | -15.61916 | 59.57058 | 35041 ft | 462 kts | 30° |
| 2026-05-04 15:01 | -15.56573 | 59.60774 | 35038 ft | 463 kts | 30° |
| 2026-05-04 15:02 | -15.51221 | 59.64496 | 35042 ft | 463 kts | 30° |
| 2026-05-04 15:02 | -15.45869 | 59.68211 | 35041 ft | 463 kts | 30° |
| 2026-05-04 15:03 | -15.40513 | 59.71927 | 35044 ft | 463 kts | 30° |
| 2026-05-04 15:03 | -15.35156 | 59.75639 | 35047 ft | 463 kts | 30° |
| 2026-05-04 15:04 | -15.29803 | 59.79350 | 35049 ft | 463 kts | 30° |
| 2026-05-04 15:04 | -15.24456 | 59.83066 | 35048 ft | 463 kts | 30° |
| 2026-05-04 15:05 | -15.19145 | 59.86754 | 35048 ft | 462 kts | 30° |
| 2026-05-04 15:05 | -15.13803 | 59.90455 | 35046 ft | 462 kts | 30° |
| 2026-05-04 15:06 | -15.08458 | 59.94143 | 35045 ft | 461 kts | 30° |
| 2026-05-04 15:07 | -15.00453 | 59.99671 | 35045 ft | 461 kts | 30° |
| 2026-05-04 15:07 | -14.95233 | 60.03541 | 35044 ft | 463 kts | 33° |
| 2026-05-04 15:08 | -14.90168 | 60.07656 | 35043 ft | 463 kts | 34° |
| 2026-05-04 15:08 | -14.85107 | 60.11772 | 35041 ft | 463 kts | 34° |
| 2026-05-04 15:09 | -14.79997 | 60.15810 | 35041 ft | 462 kts | 33° |
| 2026-05-04 15:09 | -14.74878 | 60.19807 | 35039 ft | 461 kts | 33° |
| 2026-05-04 15:10 | -14.67216 | 60.25827 | 35034 ft | 461 kts | 33° |
| 2026-05-04 15:11 | -14.59572 | 60.31853 | 35035 ft | 461 kts | 33° |
| 2026-05-04 15:11 | -14.54497 | 60.35841 | 35034 ft | 461 kts | 33° |
| 2026-05-04 15:12 | -14.49391 | 60.39847 | 35036 ft | 461 kts | 33° |
| 2026-05-04 15:12 | -14.45146 | 60.43174 | 35042 ft | 460 kts | 33° |
| 2026-05-04 15:13 | -14.40048 | 60.47181 | 35045 ft | 460 kts | 33° |
| 2026-05-04 15:13 | -14.34960 | 60.51180 | 35045 ft | 460 kts | 33° |
| 2026-05-04 15:14 | -14.29872 | 60.55169 | 35041 ft | 459 kts | 33° |
| 2026-05-04 15:14 | -14.24785 | 60.59151 | 35038 ft | 459 kts | 33° |
| 2026-05-04 15:15 | -14.18872 | 60.63779 | 35038 ft | 459 kts | 33° |
| 2026-05-04 15:15 | -14.14608 | 60.67115 | 35035 ft | 459 kts | 33° |
| 2026-05-04 15:16 | -14.07005 | 60.73052 | 35034 ft | 459 kts | 33° |
| 2026-05-04 15:17 | -13.99337 | 60.79031 | 35035 ft | 459 kts | 33° |
| 2026-05-04 15:17 | -13.91743 | 60.84968 | 35040 ft | 459 kts | 34° |
| 2026-05-04 15:18 | -13.86657 | 60.88929 | 35039 ft | 458 kts | 34° |
| 2026-05-04 15:19 | -13.79041 | 60.94875 | 35039 ft | 458 kts | 34° |
| 2026-05-04 15:19 | -13.71430 | 61.00814 | 35036 ft | 458 kts | 34° |
| 2026-05-04 15:20 | -13.66345 | 61.04764 | 35039 ft | 457 kts | 34° |
| 2026-05-04 15:20 | -13.61266 | 61.08710 | 35037 ft | 457 kts | 34° |
| 2026-05-04 15:21 | -13.56191 | 61.12655 | 35032 ft | 457 kts | 34° |
| 2026-05-04 15:22 | -13.48580 | 61.18569 | 35028 ft | 457 kts | 34° |
| 2026-05-04 15:22 | -13.40992 | 61.24445 | 35028 ft | 457 kts | 34° |
| 2026-05-04 15:23 | -13.35915 | 61.28384 | 35028 ft | 457 kts | 34° |
| 2026-05-04 15:23 | -13.30840 | 61.32312 | 35027 ft | 457 kts | 34° |
| 2026-05-04 15:24 | -13.20705 | 61.40166 | 35026 ft | 457 kts | 34° |
| 2026-05-04 15:25 | -13.15637 | 61.44098 | 35025 ft | 457 kts | 34° |
| 2026-05-04 15:26 | -13.08024 | 61.49977 | 35027 ft | 456 kts | 34° |
| 2026-05-04 15:26 | -13.00458 | 61.55832 | 35027 ft | 456 kts | 34° |
| 2026-05-04 15:27 | -12.92853 | 61.61715 | 35028 ft | 456 kts | 34° |
| 2026-05-04 15:28 | -12.85242 | 61.67572 | 35027 ft | 456 kts | 34° |
| 2026-05-04 15:29 | -12.77651 | 61.73427 | 35029 ft | 455 kts | 34° |
| 2026-05-04 15:30 | -12.60007 | 61.87011 | 35017 ft | 454 kts | 34° |
| 2026-05-04 15:31 | -12.52445 | 61.92834 | 35014 ft | 454 kts | 34° |
| 2026-05-04 15:32 | -12.39822 | 62.02531 | 35013 ft | 453 kts | 34° |
| 2026-05-04 15:34 | -12.27215 | 62.12208 | 35014 ft | 453 kts | 34° |
| 2026-05-04 15:34 | -12.19682 | 62.17974 | 35014 ft | 453 kts | 34° |
| 2026-05-04 15:35 | -12.12118 | 62.23771 | 35016 ft | 453 kts | 34° |
| 2026-05-04 15:36 | -12.04556 | 62.29558 | 35020 ft | 453 kts | 34° |
| 2026-05-04 15:36 | -11.99511 | 62.33422 | 35018 ft | 453 kts | 34° |
| 2026-05-04 15:37 | -11.94464 | 62.37276 | 35014 ft | 453 kts | 34° |
| 2026-05-04 15:37 | -11.89413 | 62.41138 | 35020 ft | 453 kts | 34° |
| 2026-05-04 15:38 | -11.84397 | 62.44969 | 35024 ft | 453 kts | 34° |
| 2026-05-04 15:38 | -11.79350 | 62.48818 | 35011 ft | 452 kts | 34° |
| 2026-05-04 15:39 | -11.74303 | 62.52669 | 35010 ft | 452 kts | 34° |
| 2026-05-04 15:40 | -11.66755 | 62.58433 | 35005 ft | 452 kts | 34° |
| 2026-05-04 15:40 | -11.61721 | 62.62268 | 35007 ft | 451 kts | 34° |
| 2026-05-04 15:41 | -11.56689 | 62.66098 | 34998 ft | 451 kts | 34° |
| 2026-05-04 15:41 | -11.51660 | 62.69932 | 35007 ft | 451 kts | 34° |
| 2026-05-04 15:42 | -11.46634 | 62.73753 | 35004 ft | 451 kts | 34° |
| 2026-05-04 15:42 | -11.41641 | 62.77553 | 35003 ft | 450 kts | 34° |
| 2026-05-04 15:43 | -11.36626 | 62.81381 | 35006 ft | 450 kts | 34° |
| 2026-05-04 15:43 | -11.31600 | 62.85195 | 35003 ft | 450 kts | 34° |
| 2026-05-04 15:44 | -11.26570 | 62.89011 | 35008 ft | 450 kts | 34° |
| 2026-05-04 15:44 | -11.21545 | 62.92827 | 35005 ft | 451 kts | 34° |
| 2026-05-04 15:45 | -11.16519 | 62.96643 | 34999 ft | 451 kts | 34° |
| 2026-05-04 15:45 | -11.11498 | 63.00458 | 35009 ft | 450 kts | 34° |
| 2026-05-04 15:46 | -11.06471 | 63.04266 | 35001 ft | 450 kts | 34° |
| 2026-05-04 15:46 | -11.01482 | 63.08048 | 34996 ft | 450 kts | 35° |
| 2026-05-04 15:47 | -10.96464 | 63.11856 | 35001 ft | 450 kts | 35° |
| 2026-05-04 15:47 | -10.91444 | 63.15662 | 34994 ft | 449 kts | 35° |
| 2026-05-04 15:48 | -10.86424 | 63.19459 | 34987 ft | 449 kts | 35° |
| 2026-05-04 15:48 | -10.78904 | 63.25162 | 34992 ft | 450 kts | 35° |
| 2026-05-04 15:49 | -10.73880 | 63.28958 | 34990 ft | 450 kts | 35° |
| 2026-05-04 15:49 | -10.68855 | 63.32748 | 35002 ft | 450 kts | 35° |
| 2026-05-04 15:50 | -10.63828 | 63.36538 | 34993 ft | 450 kts | 35° |
| 2026-05-04 15:50 | -10.58808 | 63.40338 | 34984 ft | 450 kts | 35° |
| 2026-05-04 15:51 | -10.53789 | 63.44129 | 34977 ft | 449 kts | 35° |
| 2026-05-04 15:51 | -10.48775 | 63.47910 | 34970 ft | 448 kts | 35° |
| 2026-05-04 15:52 | -10.43801 | 63.51664 | 34966 ft | 449 kts | 35° |
| 2026-05-04 15:52 | -10.38795 | 63.55447 | 34963 ft | 448 kts | 35° |
| 2026-05-04 15:53 | -10.33787 | 63.59224 | 34965 ft | 448 kts | 35° |
| 2026-05-04 15:53 | -10.28779 | 63.62997 | 34962 ft | 448 kts | 35° |
| 2026-05-04 15:54 | -10.23776 | 63.66768 | 34955 ft | 448 kts | 35° |
| 2026-05-04 15:54 | -10.18768 | 63.70537 | 34954 ft | 448 kts | 35° |
| 2026-05-04 15:55 | -10.13766 | 63.74299 | 34951 ft | 447 kts | 35° |
| 2026-05-04 15:55 | -10.08788 | 63.78044 | 34952 ft | 448 kts | 35° |
| 2026-05-04 15:56 | -10.03781 | 63.81811 | 34958 ft | 448 kts | 35° |
| 2026-05-04 15:56 | -9.98773 | 63.85583 | 34961 ft | 448 kts | 35° |
| 2026-05-04 15:57 | -9.93763 | 63.89345 | 34959 ft | 448 kts | 35° |
| 2026-05-04 15:57 | -9.88747 | 63.93111 | 34961 ft | 448 kts | 35° |
| 2026-05-04 15:58 | -9.83724 | 63.96880 | 34963 ft | 449 kts | 35° |
| 2026-05-04 15:58 | -9.78737 | 64.00617 | 34965 ft | 449 kts | 35° |
| 2026-05-04 15:59 | -9.73719 | 64.04387 | 34968 ft | 449 kts | 35° |
| 2026-05-04 15:59 | -9.68701 | 64.08153 | 34969 ft | 448 kts | 35° |
| 2026-05-04 16:00 | -9.63678 | 64.11911 | 34968 ft | 449 kts | 35° |
| 2026-05-04 16:00 | -9.58660 | 64.15669 | 34965 ft | 449 kts | 35° |
| 2026-05-04 16:01 | -9.53638 | 64.19435 | 34964 ft | 449 kts | 36° |
| 2026-05-04 16:01 | -9.48619 | 64.23205 | 34963 ft | 449 kts | 35° |
| 2026-05-04 16:02 | -9.43587 | 64.26969 | 34964 ft | 449 kts | 35° |
| 2026-05-04 16:03 | -9.36085 | 64.32578 | 34963 ft | 449 kts | 35° |
| 2026-05-04 16:03 | -9.31056 | 64.36339 | 34958 ft | 449 kts | 36° |
| 2026-05-04 16:04 | -9.26027 | 64.40103 | 34957 ft | 450 kts | 36° |
| 2026-05-04 16:04 | -9.18478 | 64.45742 | 34957 ft | 450 kts | 35° |
| 2026-05-04 16:05 | -9.14255 | 64.48890 | 34956 ft | 450 kts | 36° |
| 2026-05-04 16:06 | -9.05888 | 64.55142 | 34955 ft | 450 kts | 36° |
| 2026-05-04 16:07 | -8.96661 | 64.62025 | 34962 ft | 450 kts | 36° |
| 2026-05-04 16:08 | -8.86568 | 64.69552 | 34961 ft | 450 kts | 36° |
| 2026-05-04 16:09 | -8.73968 | 64.78954 | 34953 ft | 450 kts | 36° |
| 2026-05-04 16:10 | -8.63882 | 64.86459 | 34953 ft | 450 kts | 36° |
| 2026-05-04 16:11 | -8.53830 | 64.93929 | 34953 ft | 450 kts | 36° |
| 2026-05-04 16:12 | -8.38717 | 65.05175 | 34973 ft | 450 kts | 36° |
| 2026-05-04 16:13 | -8.28624 | 65.12664 | 34976 ft | 450 kts | 36° |
| 2026-05-04 16:14 | -8.18530 | 65.20161 | 34982 ft | 450 kts | 36° |
| 2026-05-04 16:16 | -8.05909 | 65.29522 | 34978 ft | 451 kts | 36° |
| 2026-05-04 16:17 | -7.93289 | 65.38859 | 34985 ft | 451 kts | 36° |
| 2026-05-04 16:18 | -7.83186 | 65.46350 | 34979 ft | 450 kts | 36° |
| 2026-05-04 16:19 | -7.70579 | 65.55691 | 34970 ft | 450 kts | 36° |
| 2026-05-04 16:20 | -7.57951 | 65.65030 | 34975 ft | 451 kts | 36° |
| 2026-05-04 16:22 | -7.45303 | 65.74366 | 34981 ft | 451 kts | 36° |
| 2026-05-04 16:23 | -7.30172 | 65.85541 | 34985 ft | 451 kts | 36° |
| 2026-05-04 16:25 | -7.15025 | 65.96721 | 34977 ft | 449 kts | 36° |
| 2026-05-04 16:26 | -6.97389 | 66.09719 | 34981 ft | 448 kts | 36° |
| 2026-05-04 16:28 | -6.84849 | 66.18958 | 34979 ft | 446 kts | 36° |
| 2026-05-04 16:29 | -6.67349 | 66.31835 | 34974 ft | 446 kts | 36° |
| 2026-05-04 16:31 | -6.54842 | 66.41034 | 34972 ft | 445 kts | 36° |
| 2026-05-04 16:32 | -6.39866 | 66.52042 | 34965 ft | 444 kts | 36° |
| 2026-05-04 16:33 | -6.29886 | 66.59368 | 34964 ft | 444 kts | 36° |
| 2026-05-04 16:34 | -6.22397 | 66.64857 | 34963 ft | 444 kts | 36° |
| 2026-05-04 16:35 | -6.07442 | 66.75851 | 34963 ft | 444 kts | 36° |
| 2026-05-04 16:36 | -5.99948 | 66.81335 | 34970 ft | 444 kts | 36° |
| 2026-05-04 16:37 | -5.92507 | 66.86794 | 34977 ft | 443 kts | 36° |
| 2026-05-04 16:38 | -5.82530 | 66.94099 | 34975 ft | 441 kts | 36° |
| 2026-05-04 16:39 | -5.70165 | 67.03161 | 34971 ft | 441 kts | 37° |
| 2026-05-04 16:40 | -5.60262 | 67.10413 | 34972 ft | 441 kts | 37° |
| 2026-05-04 16:41 | -5.47883 | 67.19459 | 34971 ft | 440 kts | 37° |
| 2026-05-04 16:43 | -5.35541 | 67.28483 | 34970 ft | 438 kts | 37° |
| 2026-05-04 16:43 | -5.28148 | 67.33891 | 34967 ft | 439 kts | 37° |
| 2026-05-04 16:45 | -5.13355 | 67.44713 | 34969 ft | 438 kts | 37° |
| 2026-05-04 16:46 | -5.01071 | 67.53668 | 34966 ft | 438 kts | 37° |
| 2026-05-04 16:47 | -4.91224 | 67.60860 | 34966 ft | 438 kts | 37° |
| 2026-05-04 16:48 | -4.81369 | 67.68058 | 34965 ft | 438 kts | 37° |
| 2026-05-04 16:49 | -4.71505 | 67.75251 | 34962 ft | 438 kts | 37° |
| 2026-05-04 16:50 | -4.61634 | 67.82455 | 34962 ft | 439 kts | 37° |
| 2026-05-04 16:51 | -4.54224 | 67.87852 | 34957 ft | 439 kts | 37° |
| 2026-05-04 16:52 | -4.45164 | 67.94441 | 34956 ft | 439 kts | 37° |
| 2026-05-04 16:53 | -4.37743 | 67.99856 | 34960 ft | 440 kts | 37° |
| 2026-05-04 16:54 | -4.27851 | 68.07075 | 34961 ft | 440 kts | 37° |
| 2026-05-04 16:55 | -4.12982 | 68.17892 | 34962 ft | 440 kts | 37° |
| 2026-05-04 16:56 | -4.00596 | 68.26905 | 34962 ft | 440 kts | 37° |
| 2026-05-04 16:57 | -3.93149 | 68.32316 | 34966 ft | 441 kts | 37° |
| 2026-05-04 16:58 | -3.83264 | 68.39510 | 34964 ft | 440 kts | 37° |
| 2026-05-04 17:00 | -3.68420 | 68.50304 | 34961 ft | 439 kts | 37° |
| 2026-05-04 17:01 | -3.56058 | 68.59283 | 34961 ft | 439 kts | 37° |
| 2026-05-04 17:02 | -3.46214 | 68.66439 | 34960 ft | 439 kts | 37° |
| 2026-05-04 17:03 | -3.38804 | 68.71815 | 34962 ft | 439 kts | 37° |
| 2026-05-04 17:03 | -3.31394 | 68.77197 | 34960 ft | 439 kts | 37° |
| 2026-05-04 17:04 | -3.21514 | 68.84368 | 34960 ft | 438 kts | 37° |
| 2026-05-04 17:05 | -3.11643 | 68.91541 | 34956 ft | 438 kts | 37° |
| 2026-05-04 17:06 | -3.04236 | 68.96910 | 34957 ft | 438 kts | 37° |
| 2026-05-04 17:07 | -2.97672 | 69.01668 | 34958 ft | 437 kts | 37° |
| 2026-05-04 17:07 | -2.91919 | 69.05865 | 34956 ft | 437 kts | 37° |
| 2026-05-04 17:08 | -2.84533 | 69.11236 | 34954 ft | 437 kts | 36° |
| 2026-05-04 17:09 | -2.79634 | 69.14794 | 34956 ft | 438 kts | 37° |
| 2026-05-04 17:09 | -2.74708 | 69.18375 | 34954 ft | 438 kts | 37° |
| 2026-05-04 17:10 | -2.62405 | 69.27321 | 34951 ft | 437 kts | 37° |
| 2026-05-04 17:11 | -2.57481 | 69.30899 | 34953 ft | 438 kts | 37° |
| 2026-05-04 17:12 | -2.50089 | 69.36274 | 34956 ft | 438 kts | 37° |
| 2026-05-04 17:13 | -2.37754 | 69.45238 | 34953 ft | 438 kts | 36° |
| 2026-05-04 17:14 | -2.27894 | 69.52391 | 34949 ft | 437 kts | 37° |
| 2026-05-04 17:15 | -2.20496 | 69.57768 | 34952 ft | 438 kts | 37° |
| 2026-05-04 17:16 | -2.10655 | 69.64905 | 34955 ft | 438 kts | 36° |
| 2026-05-04 17:17 | -2.00798 | 69.72065 | 34956 ft | 438 kts | 37° |
| 2026-05-04 17:18 | -1.90942 | 69.79227 | 34957 ft | 438 kts | 36° |
| 2026-05-04 17:19 | -1.81067 | 69.86379 | 34957 ft | 438 kts | 37° |
| 2026-05-04 17:20 | -1.71209 | 69.93536 | 34957 ft | 437 kts | 37° |
| 2026-05-04 17:20 | -1.63822 | 69.98902 | 34954 ft | 438 kts | 37° |
| 2026-05-04 17:21 | -1.53968 | 70.06060 | 34953 ft | 438 kts | 36° |
| 2026-05-04 17:22 | -1.49032 | 70.09635 | 34957 ft | 438 kts | 36° |
| 2026-05-04 17:23 | -1.39161 | 70.16786 | 34957 ft | 438 kts | 36° |
| 2026-05-04 17:24 | -1.31758 | 70.22154 | 34956 ft | 438 kts | 36° |
| 2026-05-04 17:25 | -1.21901 | 70.29306 | 34950 ft | 438 kts | 36° |
| 2026-05-04 17:26 | -1.12068 | 70.36435 | 34950 ft | 438 kts | 36° |
| 2026-05-04 17:27 | -0.99726 | 70.45381 | 34955 ft | 438 kts | 36° |
| 2026-05-04 17:28 | -0.89862 | 70.52542 | 34957 ft | 438 kts | 36° |
| 2026-05-04 17:29 | -0.75053 | 70.63278 | 34953 ft | 438 kts | 36° |
| 2026-05-04 17:31 | -0.62718 | 70.72226 | 34955 ft | 439 kts | 36° |
| 2026-05-04 17:32 | -0.50389 | 70.81153 | 34959 ft | 439 kts | 36° |
| 2026-05-04 17:33 | -0.40517 | 70.88313 | 34960 ft | 438 kts | 36° |
| 2026-05-04 17:34 | -0.30650 | 70.95465 | 34953 ft | 437 kts | 36° |
| 2026-05-04 17:35 | -0.19148 | 71.03794 | 34950 ft | 438 kts | 36° |
| 2026-05-04 17:36 | -0.14213 | 71.07376 | 34955 ft | 438 kts | 36° |
| 2026-05-04 17:36 | -0.09278 | 71.10961 | 34952 ft | 438 kts | 36° |
| 2026-05-04 17:37 | -0.04343 | 71.14541 | 34951 ft | 438 kts | 36° |
| 2026-05-04 17:37 | 0.00599 | 71.18123 | 34955 ft | 439 kts | 36° |
| 2026-05-04 17:38 | 0.05551 | 71.21706 | 34953 ft | 439 kts | 36° |
| 2026-05-04 17:38 | 0.10501 | 71.25292 | 34956 ft | 440 kts | 36° |
| 2026-05-04 17:39 | 0.17945 | 71.30677 | 34953 ft | 440 kts | 36° |
| 2026-05-04 17:39 | 0.22865 | 71.34247 | 34955 ft | 440 kts | 36° |
| 2026-05-04 17:40 | 0.27822 | 71.37842 | 34956 ft | 440 kts | 36° |
| 2026-05-04 17:40 | 0.32777 | 71.41438 | 34954 ft | 440 kts | 36° |
| 2026-05-04 17:41 | 0.37738 | 71.45035 | 34953 ft | 441 kts | 36° |
| 2026-05-04 17:41 | 0.42703 | 71.48632 | 34954 ft | 440 kts | 36° |
| 2026-05-04 17:42 | 0.47662 | 71.52232 | 34955 ft | 440 kts | 36° |
| 2026-05-04 17:42 | 0.52625 | 71.55827 | 34952 ft | 440 kts | 36° |
| 2026-05-04 17:43 | 0.57587 | 71.59418 | 34952 ft | 441 kts | 36° |
| 2026-05-04 17:43 | 0.62552 | 71.63018 | 34951 ft | 441 kts | 36° |
| 2026-05-04 17:44 | 0.67479 | 71.66594 | 34950 ft | 440 kts | 36° |
| 2026-05-04 17:44 | 0.72436 | 71.70194 | 34946 ft | 441 kts | 36° |
| 2026-05-04 17:45 | 0.77405 | 71.73799 | 34948 ft | 441 kts | 36° |
| 2026-05-04 17:45 | 0.82379 | 71.77393 | 34947 ft | 441 kts | 36° |
| 2026-05-04 17:46 | 0.87353 | 71.80994 | 34945 ft | 442 kts | 36° |
| 2026-05-04 17:46 | 0.92325 | 71.84608 | 34940 ft | 442 kts | 36° |
| 2026-05-04 17:47 | 0.97302 | 71.88220 | 34942 ft | 443 kts | 36° |
| 2026-05-04 17:47 | 1.02296 | 71.91834 | 34949 ft | 443 kts | 36° |
| 2026-05-04 17:48 | 1.07294 | 71.95456 | 34951 ft | 444 kts | 36° |
| 2026-05-04 17:48 | 1.12289 | 71.99084 | 34949 ft | 444 kts | 36° |
| 2026-05-04 17:49 | 1.17289 | 72.02709 | 34950 ft | 444 kts | 36° |
| 2026-05-04 17:49 | 1.22267 | 72.06313 | 34948 ft | 445 kts | 36° |
| 2026-05-04 17:50 | 1.27307 | 72.09975 | 34938 ft | 445 kts | 36° |
| 2026-05-04 17:50 | 1.32287 | 72.13588 | 34936 ft | 445 kts | 36° |
| 2026-05-04 17:51 | 1.37312 | 72.17225 | 34928 ft | 446 kts | 36° |
| 2026-05-04 17:51 | 1.42348 | 72.20876 | 34929 ft | 447 kts | 36° |
| 2026-05-04 17:52 | 1.47371 | 72.24526 | 34939 ft | 447 kts | 36° |
| 2026-05-04 17:52 | 1.52412 | 72.28183 | 34943 ft | 448 kts | 36° |
| 2026-05-04 17:53 | 1.57454 | 72.31841 | 34944 ft | 448 kts | 36° |
| 2026-05-04 17:53 | 1.62498 | 72.35504 | 34946 ft | 448 kts | 36° |
| 2026-05-04 17:54 | 1.67556 | 72.39169 | 34947 ft | 449 kts | 36° |
| 2026-05-04 17:54 | 1.72579 | 72.42819 | 34952 ft | 449 kts | 36° |
| 2026-05-04 17:55 | 1.77638 | 72.46491 | 34951 ft | 450 kts | 36° |
| 2026-05-04 17:55 | 1.82701 | 72.50167 | 34951 ft | 450 kts | 36° |
| 2026-05-04 17:56 | 1.87763 | 72.53835 | 34953 ft | 449 kts | 36° |
| 2026-05-04 17:56 | 1.92820 | 72.57510 | 34953 ft | 449 kts | 36° |
| 2026-05-04 17:57 | 1.97876 | 72.61175 | 34950 ft | 448 kts | 36° |
| 2026-05-04 17:57 | 2.02924 | 72.64841 | 34950 ft | 448 kts | 36° |
| 2026-05-04 17:58 | 2.07973 | 72.68506 | 34943 ft | 448 kts | 36° |
| 2026-05-04 17:58 | 2.13025 | 72.72170 | 34944 ft | 449 kts | 36° |
| 2026-05-04 17:59 | 2.18076 | 72.75841 | 34945 ft | 449 kts | 36° |
| 2026-05-04 18:00 | 2.25620 | 72.81320 | 34942 ft | 449 kts | 36° |
| 2026-05-04 18:00 | 2.30671 | 72.84995 | 34935 ft | 449 kts | 36° |
| 2026-05-04 18:01 | 2.35730 | 72.88661 | 34933 ft | 449 kts | 34° |
| 2026-05-04 18:01 | 2.41353 | 72.91337 | 34926 ft | 448 kts | 19° |
| 2026-05-04 18:02 | 2.50229 | 72.94357 | 34924 ft | 450 kts | 19° |
| 2026-05-04 18:02 | 2.56153 | 72.96392 | 34928 ft | 450 kts | 19° |
| 2026-05-04 18:03 | 2.62083 | 72.98426 | 34934 ft | 451 kts | 19° |
| 2026-05-04 18:03 | 2.68031 | 73.00455 | 34939 ft | 452 kts | 19° |
| 2026-05-04 18:04 | 2.73940 | 73.02477 | 34945 ft | 452 kts | 19° |
| 2026-05-04 18:05 | 2.82860 | 73.05528 | 34941 ft | 451 kts | 19° |
| 2026-05-04 18:05 | 2.88795 | 73.07561 | 34942 ft | 451 kts | 19° |
| 2026-05-04 18:06 | 2.97702 | 73.10605 | 34944 ft | 451 kts | 19° |
| 2026-05-04 18:06 | 3.03641 | 73.12653 | 34940 ft | 451 kts | 19° |
| 2026-05-04 18:07 | 3.09573 | 73.14697 | 34941 ft | 450 kts | 19° |
| 2026-05-04 18:07 | 3.15504 | 73.16727 | 34934 ft | 450 kts | 19° |
| 2026-05-04 18:08 | 3.21432 | 73.18750 | 34931 ft | 450 kts | 19° |
| 2026-05-04 18:08 | 3.27358 | 73.20782 | 34928 ft | 450 kts | 19° |
| 2026-05-04 18:09 | 3.39182 | 73.24831 | 34930 ft | 451 kts | 19° |
| 2026-05-04 18:10 | 3.45114 | 73.26861 | 34928 ft | 451 kts | 19° |
| 2026-05-04 18:10 | 3.51042 | 73.28898 | 34929 ft | 451 kts | 19° |
| 2026-05-04 18:11 | 3.56976 | 73.30936 | 34933 ft | 451 kts | 19° |
| 2026-05-04 18:11 | 3.62913 | 73.32966 | 34931 ft | 451 kts | 19° |
| 2026-05-04 18:12 | 3.68852 | 73.35002 | 34940 ft | 451 kts | 20° |
| 2026-05-04 18:12 | 3.74767 | 73.37031 | 34948 ft | 450 kts | 19° |
| 2026-05-04 18:13 | 3.80693 | 73.39060 | 34947 ft | 449 kts | 19° |
| 2026-05-04 18:14 | 3.89560 | 73.42096 | 34949 ft | 448 kts | 20° |
| 2026-05-04 18:14 | 3.95458 | 73.44119 | 34950 ft | 448 kts | 20° |
| 2026-05-04 18:15 | 4.07202 | 73.48151 | 34944 ft | 447 kts | 20° |
| 2026-05-04 18:16 | 4.13090 | 73.50166 | 34941 ft | 447 kts | 20° |
| 2026-05-04 18:16 | 4.18952 | 73.52248 | 34934 ft | 447 kts | 25° |
| 2026-05-04 18:17 | 4.24162 | 73.55567 | 34935 ft | 444 kts | 39° |
| 2026-05-04 18:17 | 4.26568 | 73.57513 | 34932 ft | 444 kts | 39° |
| 2026-05-04 18:18 | 4.33794 | 73.63335 | 34936 ft | 444 kts | 39° |
| 2026-05-04 18:18 | 4.38618 | 73.67209 | 34931 ft | 445 kts | 39° |
| 2026-05-04 18:19 | 4.45866 | 73.73023 | 34935 ft | 445 kts | 39° |
| 2026-05-04 18:19 | 4.50691 | 73.76909 | 34936 ft | 445 kts | 39° |
| 2026-05-04 18:20 | 4.55520 | 73.80803 | 34935 ft | 445 kts | 39° |
| 2026-05-04 18:20 | 4.60347 | 73.84692 | 34935 ft | 445 kts | 39° |
| 2026-05-04 18:21 | 4.65184 | 73.88579 | 34932 ft | 445 kts | 39° |
| 2026-05-04 18:21 | 4.70025 | 73.92463 | 34924 ft | 445 kts | 39° |
| 2026-05-04 18:22 | 4.74831 | 73.96327 | 34923 ft | 446 kts | 39° |
| 2026-05-04 18:22 | 4.79664 | 74.00228 | 34923 ft | 446 kts | 39° |
| 2026-05-04 18:23 | 4.84511 | 74.04136 | 34924 ft | 447 kts | 39° |
| 2026-05-04 18:23 | 4.89382 | 74.08021 | 34924 ft | 447 kts | 39° |
| 2026-05-04 18:24 | 4.94287 | 74.11861 | 34925 ft | 447 kts | 38° |
| 2026-05-04 18:24 | 4.99153 | 74.15678 | 34925 ft | 447 kts | 39° |
| 2026-05-04 18:25 | 5.04050 | 74.19533 | 34924 ft | 448 kts | 39° |
| 2026-05-04 18:25 | 5.08948 | 74.23398 | 34923 ft | 448 kts | 39° |
| 2026-05-04 18:26 | 5.13057 | 74.26636 | 34923 ft | 449 kts | 39° |
| 2026-05-04 18:26 | 5.17943 | 74.30486 | 34923 ft | 449 kts | 39° |
| 2026-05-04 18:27 | 5.22859 | 74.34363 | 34925 ft | 449 kts | 39° |
| 2026-05-04 18:27 | 5.27774 | 74.38237 | 34925 ft | 450 kts | 39° |
| 2026-05-04 18:28 | 5.32700 | 74.42109 | 34925 ft | 450 kts | 39° |
| 2026-05-04 18:28 | 5.37625 | 74.45987 | 34922 ft | 449 kts | 39° |
| 2026-05-04 18:29 | 5.42545 | 74.49872 | 34920 ft | 450 kts | 39° |
| 2026-05-04 18:29 | 5.47465 | 74.53757 | 34921 ft | 450 kts | 39° |
| 2026-05-04 18:30 | 5.54829 | 74.59561 | 34924 ft | 451 kts | 39° |
| 2026-05-04 18:31 | 5.59762 | 74.63452 | 34930 ft | 451 kts | 39° |
| 2026-05-04 18:31 | 5.64691 | 74.67354 | 34928 ft | 451 kts | 39° |
| 2026-05-04 18:32 | 5.69622 | 74.71254 | 34925 ft | 451 kts | 39° |
| 2026-05-04 18:32 | 5.74547 | 74.75154 | 34931 ft | 451 kts | 39° |
| 2026-05-04 18:33 | 5.79479 | 74.79042 | 34931 ft | 451 kts | 39° |
| 2026-05-04 18:33 | 5.84419 | 74.82940 | 34926 ft | 451 kts | 39° |
| 2026-05-04 18:34 | 5.89314 | 74.86820 | 34928 ft | 451 kts | 39° |
| 2026-05-04 18:34 | 5.94243 | 74.90721 | 34927 ft | 451 kts | 39° |
| 2026-05-04 18:35 | 5.99175 | 74.94619 | 34927 ft | 451 kts | 39° |
| 2026-05-04 18:35 | 6.04108 | 74.98520 | 34921 ft | 452 kts | 39° |
| 2026-05-04 18:36 | 6.09050 | 75.02430 | 34917 ft | 453 kts | 39° |
| 2026-05-04 18:36 | 6.13999 | 75.06350 | 34919 ft | 453 kts | 39° |
| 2026-05-04 18:37 | 6.18959 | 75.10272 | 34923 ft | 454 kts | 39° |
| 2026-05-04 18:37 | 6.23918 | 75.14192 | 34930 ft | 453 kts | 39° |
| 2026-05-04 18:38 | 6.28870 | 75.18125 | 34925 ft | 453 kts | 39° |
| 2026-05-04 18:38 | 6.33823 | 75.22062 | 34923 ft | 453 kts | 39° |
| 2026-05-04 18:39 | 6.38781 | 75.25999 | 34924 ft | 454 kts | 39° |
| 2026-05-04 18:39 | 6.43747 | 75.29926 | 34922 ft | 454 kts | 39° |
| 2026-05-04 18:40 | 6.48706 | 75.33857 | 34922 ft | 454 kts | 39° |
| 2026-05-04 18:40 | 6.53666 | 75.37793 | 34922 ft | 454 kts | 39° |
| 2026-05-04 18:41 | 6.58626 | 75.41733 | 34924 ft | 454 kts | 39° |
| 2026-05-04 18:41 | 6.63596 | 75.45671 | 34924 ft | 454 kts | 39° |
| 2026-05-04 18:42 | 6.68528 | 75.49582 | 34921 ft | 454 kts | 39° |
| 2026-05-04 18:42 | 6.73490 | 75.53524 | 34920 ft | 454 kts | 39° |
| 2026-05-04 18:43 | 6.78451 | 75.57471 | 34916 ft | 454 kts | 39° |
| 2026-05-04 18:43 | 6.83413 | 75.61413 | 34913 ft | 454 kts | 39° |
| 2026-05-04 18:44 | 6.88375 | 75.65354 | 34908 ft | 454 kts | 39° |
| 2026-05-04 18:44 | 6.93348 | 75.69306 | 34907 ft | 455 kts | 39° |
| 2026-05-04 18:45 | 6.98317 | 75.73260 | 34908 ft | 455 kts | 39° |
| 2026-05-04 18:45 | 7.03290 | 75.77215 | 34910 ft | 456 kts | 39° |
| 2026-05-04 18:46 | 7.08268 | 75.81179 | 34911 ft | 456 kts | 39° |
| 2026-05-04 18:46 | 7.13220 | 75.85124 | 34913 ft | 457 kts | 39° |
| 2026-05-04 18:47 | 7.18204 | 75.89092 | 34910 ft | 457 kts | 39° |
| 2026-05-04 18:47 | 7.23191 | 75.93064 | 34907 ft | 457 kts | 39° |
| 2026-05-04 18:48 | 7.28191 | 75.97045 | 34904 ft | 458 kts | 39° |
| 2026-05-04 18:48 | 7.33183 | 76.01028 | 34903 ft | 457 kts | 40° |
| 2026-05-04 18:49 | 7.38178 | 76.05002 | 34900 ft | 458 kts | 40° |
| 2026-05-04 18:49 | 7.43179 | 76.08983 | 34899 ft | 458 kts | 40° |
| 2026-05-04 18:50 | 7.48173 | 76.12980 | 34897 ft | 459 kts | 40° |
| 2026-05-04 18:50 | 7.53142 | 76.16959 | 34899 ft | 459 kts | 40° |
| 2026-05-04 18:51 | 7.58150 | 76.20952 | 34900 ft | 459 kts | 40° |
| 2026-05-04 18:51 | 7.63167 | 76.24951 | 34901 ft | 460 kts | 40° |
| 2026-05-04 18:52 | 7.68184 | 76.28957 | 34904 ft | 460 kts | 40° |
| 2026-05-04 18:52 | 7.73192 | 76.32967 | 34907 ft | 460 kts | 40° |
| 2026-05-04 18:53 | 7.78204 | 76.36970 | 34906 ft | 460 kts | 40° |
| 2026-05-04 18:53 | 7.83217 | 76.40978 | 34907 ft | 460 kts | 40° |
| 2026-05-04 18:54 | 7.88231 | 76.44985 | 34908 ft | 460 kts | 40° |
| 2026-05-04 18:54 | 7.93248 | 76.48993 | 34910 ft | 460 kts | 40° |
| 2026-05-04 18:55 | 7.98270 | 76.52998 | 34911 ft | 460 kts | 40° |
| 2026-05-04 18:55 | 8.05759 | 76.58983 | 34910 ft | 460 kts | 40° |
| 2026-05-04 18:56 | 8.10774 | 76.62987 | 34910 ft | 460 kts | 40° |
| 2026-05-04 18:56 | 8.15784 | 76.66997 | 34910 ft | 459 kts | 40° |
| 2026-05-04 18:57 | 8.20782 | 76.71018 | 34913 ft | 459 kts | 40° |
| 2026-05-04 18:57 | 8.25772 | 76.75036 | 34911 ft | 459 kts | 40° |
| 2026-05-04 18:58 | 8.30773 | 76.79048 | 34911 ft | 459 kts | 40° |
| 2026-05-04 18:58 | 8.35770 | 76.83054 | 34912 ft | 459 kts | 40° |
| 2026-05-04 18:59 | 8.40768 | 76.87068 | 34914 ft | 459 kts | 40° |
| 2026-05-04 18:59 | 8.42238 | 76.88247 | 34915 ft | 458 kts | 40° |